KDAL/DAL METAR and TAF weather

Enter ICAO airport designator
Station Type Date Time Source
KDAL METAR 2018/04/21 20:53 UTC NOAA

KDAL 212053Z 17005KT 8SM OVC011 18/17 A2991 RMK AO2 SLP125 60002 T01830167 56018


Station Type Date Time Source
KDAL Decoded METAR 2018/04/21 20:53 UTC NOAA

DALLAS LOVE FIELD, TX, United States (KDAL) 32-51N 096-51W 158M
Apr 21, 2018 - 04:53 PM EDT / 2018.04.21 2053 UTC
Wind: from the S (170 degrees) at 6 MPH (5 KT):0
Visibility: 8 mile(s):0
Sky conditions: overcast
Temperature: 64.9 F (18.3 C)
Dew Point: 62.1 F (16.7 C)
Relative Humidity: 90%
Pressure (altimeter): 29.91 in. Hg (1012 hPa)
Pressure tendency: 0.05 inches (1.8 hPa) lower than three hours ago
ob: KDAL 212053Z 17005KT 8SM OVC011 18/17 A2991 RMK AO2 SLP125 60002 T01830167 56018
cycle: 21

Station Type Date Time Source
KDAL TAF 2018/04/21 18:24 UTC NOAA

TAF KDAL 211721Z 2118/2218 16012KT 6SM BR VCSH BKN014
FM212200 18010KT P6SM VCTS BKN015 BKN030CB
TEMPO 2123/2201 01015G25KT 3SM TSRA BR BKN015CB
FM220100 34016KT P6SM OVC012
FM221500 33018KT P6SM SCT250


Example: see airport list